Time;durP1;ratioP1;P1;durP2;ratioP2;P2;SDS_P1;SDS_P2;PMS_P1;PMS_P2;Temp;Humidity;BMP_temperature;BMP_pressure;BME280_temperature;BME280_humidity;BME280_pressure;Samples;Min_cycle;Max_cycle;Signal;HPM_P1;HPM_P2
2021/07/16 00:00:21;;;;;;;3.93;3.60;;;14.80;99.90;;;;;;5051996;28;20496;-84
2021/07/16 00:02:51;;;;;;;3.50;3.20;;;14.80;99.90;;;;;;5059831;28;20529;-84
2021/07/16 00:05:19;;;;;;;3.50;3.20;;;14.70;99.90;;;;;;5050967;28;20525;-83
2021/07/16 00:07:47;;;;;;;3.90;3.50;;;14.60;99.90;;;;;;5060804;28;20493;-83
2021/07/16 00:10:16;;;;;;;4.00;3.70;;;14.60;99.90;;;;;;5055763;28;20609;-83
2021/07/16 00:12:44;;;;;;;4.17;3.70;;;14.50;99.90;;;;;;5049799;28;20510;-83
2021/07/16 00:15:13;;;;;;;4.10;3.70;;;14.50;99.90;;;;;;5050225;28;20493;-84
2021/07/16 00:17:40;;;;;;;4.00;3.70;;;14.40;99.90;;;;;;5052939;28;21016;-83
2021/07/16 00:20:10;;;;;;;5.20;4.70;;;14.50;99.90;;;;;;5058090;28;20475;-82
2021/07/16 00:22:37;;;;;;;4.97;4.57;;;14.60;99.90;;;;;;5047655;28;20571;-83
2021/07/16 00:25:05;;;;;;;6.23;4.80;;;14.50;99.90;;;;;;5049800;28;20458;-82
2021/07/16 00:27:32;;;;;;;4.63;4.30;;;14.50;99.90;;;;;;5057206;28;20446;-82
2021/07/16 00:30:00;;;;;;;4.20;3.90;;;14.60;99.90;;;;;;5047046;28;20459;-82
2021/07/16 00:32:29;;;;;;;4.67;3.97;;;14.70;99.90;;;;;;5050028;28;20536;-82
2021/07/16 00:34:56;;;;;;;5.07;3.17;;;14.70;99.90;;;;;;5050203;28;20450;-82
2021/07/16 00:37:25;;;;;;;4.23;3.87;;;14.60;99.90;;;;;;5057130;28;20806;-83
2021/07/16 00:39:52;;;;;;;4.93;3.80;;;14.50;99.90;;;;;;5052461;28;20444;-82
2021/07/16 00:42:19;;;;;;;4.53;4.13;;;14.40;99.90;;;;;;5068604;28;20483;-85
2021/07/16 00:44:46;;;;;;;4.40;4.10;;;14.40;99.90;;;;;;5069768;28;20446;-84
2021/07/16 00:47:13;;;;;;;3.77;3.57;;;14.40;99.90;;;;;;5062397;28;20445;-83
2021/07/16 00:49:40;;;;;;;4.60;4.10;;;14.30;99.90;;;;;;5060592;28;20494;-82
2021/07/16 00:52:09;;;;;;;4.00;3.70;;;14.30;99.90;;;;;;5049896;28;20450;-86
2021/07/16 00:54:37;;;;;;;3.93;3.63;;;14.20;99.90;;;;;;5057935;28;20461;-84
2021/07/16 00:57:07;;;;;;;4.57;3.30;;;14.30;99.90;;;;;;5051335;28;20472;-83
2021/07/16 00:59:34;;;;;;;4.00;3.70;;;14.30;99.90;;;;;;5061805;28;20450;-81
2021/07/16 01:02:02;;;;;;;4.93;3.30;;;14.20;99.90;;;;;;5052731;28;20473;-82
2021/07/16 01:04:29;;;;;;;3.30;3.10;;;14.10;99.90;;;;;;5057288;28;20458;-82
2021/07/16 01:06:57;;;;;;;3.77;3.50;;;14.10;99.90;;;;;;5051077;28;20445;-82
2021/07/16 01:09:23;;;;;;;4.20;3.90;;;14.00;99.90;;;;;;5049936;28;20480;-82
2021/07/16 01:11:52;;;;;;;4.03;3.70;;;14.10;99.90;;;;;;5053026;28;20553;-82
2021/07/16 01:14:20;;;;;;;4.07;3.53;;;14.10;99.90;;;;;;5050966;28;21270;-82
2021/07/16 01:16:46;;;;;;;4.50;4.20;;;14.10;99.90;;;;;;5059791;28;20507;-84
2021/07/16 01:19:23;;;;;;;4.80;4.40;;;14.20;99.90;;;;;;5053416;28;20488;-82
2021/07/16 01:21:52;;;;;;;5.07;4.67;;;14.20;99.90;;;;;;5052580;28;20442;-81
2021/07/16 01:24:20;;;;;;;4.67;4.10;;;14.10;99.90;;;;;;5042573;28;20461;-83
2021/07/16 01:26:47;;;;;;;4.27;3.97;;;14.20;99.90;;;;;;5049722;28;20481;-82
2021/07/16 01:29:15;;;;;;;5.33;4.83;;;14.20;99.90;;;;;;5049670;28;20561;-84
2021/07/16 01:31:42;;;;;;;4.87;4.33;;;14.10;99.90;;;;;;5059578;28;20446;-86
2021/07/16 01:34:09;;;;;;;4.93;4.43;;;14.20;99.90;;;;;;5070890;28;20450;-83
2021/07/16 01:36:38;;;;;;;4.53;3.80;;;14.20;99.90;;;;;;5068887;28;20456;-83
2021/07/16 01:39:05;;;;;;;4.63;4.23;;;14.20;99.90;;;;;;5069401;28;20465;-80
2021/07/16 01:41:34;;;;;;;4.10;3.80;;;14.20;99.90;;;;;;5066455;28;20441;-80
2021/07/16 01:44:02;;;;;;;5.07;4.30;;;14.10;99.90;;;;;;5057596;28;20448;-79
2021/07/16 01:46:28;;;;;;;4.80;4.27;;;14.10;99.90;;;;;;5082052;28;20458;-79
2021/07/16 01:48:56;;;;;;;4.90;4.50;;;14.10;99.90;;;;;;5058868;28;20465;-80
2021/07/16 01:51:22;;;;;;;4.40;4.00;;;14.10;99.90;;;;;;5064688;28;20494;-80
2021/07/16 01:53:50;;;;;;;4.53;4.17;;;14.20;99.90;;;;;;5052506;28;20953;-79
2021/07/16 01:56:18;;;;;;;5.10;4.63;;;14.00;99.90;;;;;;5054897;28;20947;-79
2021/07/16 01:58:47;;;;;;;4.60;4.30;;;14.00;99.90;;;;;;5047747;28;20522;-79
2021/07/16 02:01:15;;;;;;;5.20;4.83;;;14.00;99.90;;;;;;5046398;28;20441;-80
2021/07/16 02:03:44;;;;;;;5.40;5.00;;;14.00;99.90;;;;;;5056616;28;21228;-80
2021/07/16 02:06:11;;;;;;;5.47;5.07;;;14.10;99.90;;;;;;5056454;28;20445;-80
2021/07/16 02:08:40;;;;;;;5.10;4.67;;;14.10;99.90;;;;;;5046910;28;20465;-79
2021/07/16 02:11:07;;;;;;;5.20;4.80;;;14.10;99.90;;;;;;5053925;28;20520;-80
2021/07/16 02:13:35;;;;;;;4.20;3.90;;;14.00;99.90;;;;;;5057489;28;20450;-80
2021/07/16 02:16:04;;;;;;;5.03;4.63;;;13.80;99.90;;;;;;5064677;28;20461;-80
2021/07/16 02:18:33;;;;;;;5.20;4.17;;;13.80;99.90;;;;;;5065341;28;20508;-80
2021/07/16 02:21:00;;;;;;;4.87;4.47;;;13.70;99.90;;;;;;5057664;28;20453;-80
2021/07/16 02:23:30;;;;;;;4.50;4.20;;;13.60;99.90;;;;;;5056701;28;20483;-80
2021/07/16 02:25:58;;;;;;;5.40;4.87;;;13.70;99.90;;;;;;5061793;28;20454;-80
2021/07/16 02:28:27;;;;;;;5.53;5.10;;;13.60;99.90;;;;;;5062668;28;20483;-80
2021/07/16 02:30:55;;;;;;;6.13;5.60;;;13.70;99.90;;;;;;5051923;28;20535;-80
2021/07/16 02:33:24;;;;;;;5.80;4.97;;;13.80;99.90;;;;;;5064033;28;20450;-80
2021/07/16 02:35:51;;;;;;;7.63;5.20;;;13.80;99.90;;;;;;5054926;28;20446;-80
2021/07/16 02:38:18;;;;;;;5.00;4.60;;;13.90;99.90;;;;;;5066267;28;20488;-80
2021/07/16 02:40:46;;;;;;;4.77;4.37;;;13.80;99.90;;;;;;5058945;28;20458;-80
2021/07/16 02:43:14;;;;;;;4.87;4.47;;;13.70;99.90;;;;;;5066359;28;20457;-79
2021/07/16 02:45:43;;;;;;;5.80;5.30;;;13.70;99.90;;;;;;5053513;28;20458;-80
2021/07/16 02:48:10;;;;;;;4.30;3.90;;;13.60;99.90;;;;;;5060570;28;20446;-80
2021/07/16 02:50:39;;;;;;;4.67;4.27;;;13.60;99.90;;;;;;5049114;28;20491;-81
2021/07/16 02:53:08;;;;;;;5.10;4.60;;;13.60;99.90;;;;;;5066822;28;20454;-81
2021/07/16 02:55:35;;;;;;;4.90;4.47;;;13.50;99.90;;;;;;5061551;28;20526;-81
2021/07/16 02:58:02;;;;;;;5.23;4.77;;;13.50;99.90;;;;;;5055957;28;20454;-81
2021/07/16 03:00:30;;;;;;;5.90;4.73;;;13.50;99.90;;;;;;5066478;28;20446;-81
2021/07/16 03:02:58;;;;;;;5.50;5.00;;;13.40;99.90;;;;;;5062829;28;20506;-81
2021/07/16 03:05:27;;;;;;;6.03;5.40;;;13.40;99.90;;;;;;5056239;28;20487;-81
2021/07/16 03:07:57;;;;;;;5.80;5.30;;;13.40;99.90;;;;;;5062789;28;20524;-81
2021/07/16 03:10:26;;;;;;;6.20;5.70;;;13.40;99.90;;;;;;5060838;28;20487;-81
2021/07/16 03:12:54;;;;;;;6.90;5.93;;;13.30;99.90;;;;;;5066767;28;20446;-81
2021/07/16 03:15:23;;;;;;;6.53;5.47;;;13.40;99.90;;;;;;5048838;28;20480;-81
2021/07/16 03:17:51;;;;;;;5.90;5.30;;;13.30;99.90;;;;;;5051801;28;20447;-81
2021/07/16 03:20:20;;;;;;;6.20;5.63;;;13.20;99.90;;;;;;5055578;28;20446;-81
2021/07/16 03:22:47;;;;;;;8.60;6.17;;;13.20;99.90;;;;;;5053309;28;20452;-80
2021/07/16 03:25:18;;;;;;;7.67;5.70;;;13.30;99.90;;;;;;5058282;28;20449;-80
2021/07/16 03:27:45;;;;;;;5.93;5.20;;;13.40;99.90;;;;;;5054316;28;20446;-81
2021/07/16 03:30:15;;;;;;;8.13;6.03;;;13.50;99.90;;;;;;5061259;28;20473;-80
2021/07/16 03:32:42;;;;;;;5.50;5.10;;;13.60;99.90;;;;;;5054807;28;20963;-80
2021/07/16 03:35:10;;;;;;;7.30;5.57;;;13.60;99.90;;;;;;5063055;28;20455;-81
2021/07/16 03:37:38;;;;;;;5.63;4.80;;;13.70;99.90;;;;;;5061556;28;20519;-81
2021/07/16 03:40:08;;;;;;;6.50;4.47;;;13.70;99.90;;;;;;5058559;28;20518;-81
2021/07/16 03:42:36;;;;;;;4.40;4.00;;;13.80;99.90;;;;;;5064097;28;20481;-81
2021/07/16 03:45:04;;;;;;;4.97;4.57;;;13.80;99.90;;;;;;5060488;28;20900;-81
2021/07/16 03:47:31;;;;;;;4.47;4.03;;;13.80;99.90;;;;;;5051085;28;20487;-81
2021/07/16 03:49:59;;;;;;;4.03;3.80;;;13.80;99.90;;;;;;5053702;28;20460;-81
2021/07/16 03:52:26;;;;;;;4.77;4.40;;;13.90;99.90;;;;;;5057524;28;20537;-81
2021/07/16 03:54:53;;;;;;;5.90;4.00;;;13.80;99.90;;;;;;5057276;28;20446;-81
2021/07/16 03:57:20;;;;;;;4.90;4.50;;;13.90;99.90;;;;;;5060017;28;20490;-81
2021/07/16 03:59:49;;;;;;;4.83;4.43;;;14.00;99.90;;;;;;5053465;28;20459;-81
2021/07/16 04:02:16;;;;;;;5.50;4.07;;;14.10;99.90;;;;;;5062014;28;20442;-81
2021/07/16 04:04:44;;;;;;;5.87;4.43;;;14.20;99.90;;;;;;5065589;28;20456;-81
2021/07/16 04:07:17;;;;;;;5.30;4.80;;;14.20;99.90;;;;;;5066480;28;20441;-81
2021/07/16 04:09:45;;;;;;;6.23;5.10;;;14.30;99.90;;;;;;5050751;28;20766;-81
2021/07/16 04:12:14;;;;;;;5.33;4.93;;;14.30;99.90;;;;;;5052669;28;20469;-81
2021/07/16 04:14:43;;;;;;;6.80;6.20;;;14.50;99.90;;;;;;5055427;28;20472;-81
2021/07/16 04:17:13;;;;;;;5.87;5.20;;;14.80;99.90;;;;;;5050332;28;20469;-81
2021/07/16 04:19:41;;;;;;;5.53;4.53;;;15.10;99.90;;;;;;5055240;28;20501;-82
2021/07/16 04:22:08;;;;;;;4.50;4.10;;;15.40;99.90;;;;;;5070773;28;20917;-81
2021/07/16 04:24:36;;;;;;;3.20;3.00;;;15.70;99.90;;;;;;5067952;28;20451;-81
2021/07/16 04:27:03;;;;;;;3.83;3.60;;;15.80;99.60;;;;;;5050163;28;20448;-81
2021/07/16 04:29:30;;;;;;;4.30;3.57;;;15.70;99.00;;;;;;5055231;28;20448;-80
2021/07/16 04:31:59;;;;;;;3.60;3.30;;;15.70;99.10;;;;;;5058881;28;20476;-82
2021/07/16 04:34:30;;;;;;;4.60;3.70;;;15.60;99.50;;;;;;5050182;28;20466;-82
2021/07/16 04:36:58;;;;;;;4.03;3.73;;;15.60;99.10;;;;;;5055664;28;20467;-81
2021/07/16 04:39:25;;;;;;;3.53;3.30;;;15.50;98.70;;;;;;5061301;28;20446;-81
2021/07/16 04:41:52;;;;;;;4.83;3.83;;;15.40;99.90;;;;;;5062581;28;20448;-82
2021/07/16 04:44:19;;;;;;;8.63;6.63;;;15.40;99.30;;;;;;5060179;28;20996;-81
2021/07/16 04:46:45;;;;;;;4.10;3.73;;;15.50;99.90;;;;;;5057481;28;20444;-81
2021/07/16 04:49:13;;;;;;;4.67;4.30;;;15.50;98.90;;;;;;5046436;28;20515;-81
2021/07/16 04:51:42;;;;;;;4.93;4.00;;;15.60;98.70;;;;;;5060184;28;20460;-81
2021/07/16 04:54:10;;;;;;;3.80;3.50;;;15.90;96.80;;;;;;5060584;28;20469;-81
2021/07/16 04:56:37;;;;;;;6.20;3.83;;;16.00;95.10;;;;;;5050496;28;20476;-81
2021/07/16 04:59:04;;;;;;;4.80;4.20;;;16.20;95.70;;;;;;5057274;28;20468;-81
2021/07/16 05:01:31;;;;;;;4.30;3.90;;;16.40;93.90;;;;;;5048177;28;20477;-81
2021/07/16 05:03:58;;;;;;;5.80;4.70;;;16.40;93.30;;;;;;5051376;28;20452;-81
2021/07/16 05:06:27;;;;;;;6.10;3.47;;;16.40;94.50;;;;;;5055689;28;20437;-81
2021/07/16 05:08:55;;;;;;;4.30;3.90;;;16.50;92.70;;;;;;5050844;28;20463;-80
2021/07/16 05:11:22;;;;;;;5.87;3.40;;;16.60;92.00;;;;;;5051912;28;20476;-81
2021/07/16 05:13:49;;;;;;;4.30;3.90;;;16.80;91.40;;;;;;5065133;28;20459;-81
2021/07/16 05:16:18;;;;;;;6.33;5.30;;;16.90;91.50;;;;;;5056845;28;20518;-83
2021/07/16 05:18:45;;;;;;;6.60;5.90;;;17.10;90.90;;;;;;5059355;28;20458;-82
2021/07/16 05:21:14;;;;;;;8.47;6.30;;;17.40;90.30;;;;;;5062717;28;20470;-82
2021/07/16 05:23:41;;;;;;;5.50;5.03;;;18.10;87.50;;;;;;5062757;28;20453;-80
2021/07/16 05:26:10;;;;;;;8.80;4.90;;;18.50;84.80;;;;;;5057624;28;20456;-80
2021/07/16 05:28:37;;;;;;;8.70;7.00;;;18.50;83.70;;;;;;5056254;28;20482;-80
2021/07/16 05:31:04;;;;;;;8.73;6.70;;;18.50;83.70;;;;;;5056832;28;20479;-80
2021/07/16 05:33:31;;;;;;;7.70;5.70;;;19.10;81.80;;;;;;5054248;28;20474;-81
2021/07/16 05:35:59;;;;;;;6.90;5.00;;;19.70;79.50;;;;;;5050856;28;20485;-77
2021/07/16 05:38:26;;;;;;;4.40;3.87;;;19.60;78.10;;;;;;5035753;28;20459;-76
2021/07/16 05:40:53;;;;;;;8.87;4.00;;;20.00;77.50;;;;;;5038306;28;20461;-77
2021/07/16 05:43:22;;;;;;;7.27;4.50;;;19.60;77.60;;;;;;5048789;28;20803;-77
2021/07/16 05:45:49;;;;;;;7.00;4.60;;;20.10;76.60;;;;;;5045107;28;20457;-78
2021/07/16 05:48:16;;;;;;;5.63;4.50;;;20.30;76.90;;;;;;5034203;28;21023;-77
2021/07/16 05:50:45;;;;;;;4.87;4.47;;;20.20;76.30;;;;;;5037102;28;20484;-78
2021/07/16 05:53:12;;;;;;;5.03;4.53;;;20.20;76.00;;;;;;5045261;28;20453;-78
2021/07/16 05:55:40;;;;;;;6.37;4.63;;;20.00;75.90;;;;;;5036015;28;20506;-78
2021/07/16 05:58:08;;;;;;;4.40;4.10;;;20.10;76.00;;;;;;5038287;28;20452;-78
2021/07/16 06:00:37;;;;;;;4.50;4.10;;;20.00;75.80;;;;;;5040552;28;20696;-76
2021/07/16 06:03:05;;;;;;;6.47;5.47;;;20.30;75.80;;;;;;5043797;28;20484;-76
2021/07/16 06:05:32;;;;;;;5.60;5.00;;;20.20;75.20;;;;;;5037858;28;20449;-77
2021/07/16 06:07:59;;;;;;;4.23;3.80;;;20.20;75.80;;;;;;5046332;28;20461;-76
2021/07/16 06:10:27;;;;;;;4.00;3.70;;;20.40;75.10;;;;;;5037643;28;20458;-75
2021/07/16 06:12:54;;;;;;;4.47;4.07;;;20.50;74.60;;;;;;5046907;28;20480;-76
2021/07/16 06:15:21;;;;;;;3.43;3.17;;;20.80;74.30;;;;;;5047678;28;20597;-75
2021/07/16 06:17:49;;;;;;;3.77;3.47;;;20.60;73.80;;;;;;5039030;28;20433;-75
2021/07/16 06:20:17;;;;;;;3.43;3.03;;;20.60;73.80;;;;;;5044948;28;20446;-76
2021/07/16 06:22:44;;;;;;;4.00;3.60;;;20.60;74.10;;;;;;5055714;28;20963;-75
2021/07/16 06:25:14;;;;;;;3.97;3.60;;;20.80;73.30;;;;;;5047617;28;20809;-76
2021/07/16 06:27:42;;;;;;;5.90;3.97;;;20.40;73.60;;;;;;5043552;28;20461;-75
2021/07/16 06:30:10;;;;;;;3.63;3.33;;;20.20;74.20;;;;;;5051692;28;20457;-77
2021/07/16 06:32:38;;;;;;;4.33;3.70;;;19.90;74.60;;;;;;5039943;28;20459;-76
2021/07/16 06:35:08;;;;;;;5.70;4.10;;;19.50;75.60;;;;;;5037684;28;21007;-76
2021/07/16 06:37:35;;;;;;;6.13;4.43;;;19.20;76.90;;;;;;5037281;28;20482;-76
2021/07/16 06:40:02;;;;;;;9.93;5.50;;;19.00;77.90;;;;;;5041507;28;20538;-75
2021/07/16 06:42:29;;;;;;;5.80;5.30;;;18.80;79.00;;;;;;5046045;28;20483;-77
2021/07/16 06:44:56;;;;;;;5.83;5.33;;;18.70;80.00;;;;;;5039238;28;20446;-76
2021/07/16 06:47:23;;;;;;;6.37;5.60;;;18.70;81.40;;;;;;5045189;28;20487;-76
2021/07/16 06:49:50;;;;;;;6.37;5.27;;;18.90;80.20;;;;;;5039669;28;20483;-76
2021/07/16 06:52:18;;;;;;;6.00;5.40;;;18.90;80.30;;;;;;5039125;28;20551;-76
2021/07/16 06:54:45;;;;;;;5.90;5.40;;;19.00;79.90;;;;;;5045893;28;20455;-80
2021/07/16 06:57:12;;;;;;;5.97;5.10;;;19.10;79.80;;;;;;5046023;28;20969;-75
2021/07/16 06:59:39;;;;;;;6.13;5.17;;;19.10;80.60;;;;;;5044703;28;20458;-75
2021/07/16 07:02:07;;;;;;;7.40;5.37;;;19.10;80.30;;;;;;5044264;28;20454;-75
2021/07/16 07:04:36;;;;;;;8.63;6.40;;;19.00;80.60;;;;;;5047582;28;20439;-80
2021/07/16 07:07:04;;;;;;;7.33;6.63;;;18.90;81.30;;;;;;5059415;28;20448;-81
2021/07/16 07:09:34;;;;;;;7.93;7.20;;;18.90;81.10;;;;;;5052492;28;20466;-81
2021/07/16 07:12:01;;;;;;;7.57;6.97;;;18.80;81.20;;;;;;5063202;28;20475;-83
2021/07/16 07:14:28;;;;;;;7.10;6.43;;;18.90;81.90;;;;;;5058424;28;20456;-81
2021/07/16 07:16:55;;;;;;;9.37;7.97;;;18.80;81.90;;;;;;5047910;28;20498;-80
2021/07/16 07:19:22;;;;;;;10.00;6.97;;;18.90;82.00;;;;;;5061542;28;20504;-81
2021/07/16 07:21:54;;;;;;;7.57;6.97;;;19.10;81.30;;;;;;5056728;28;20435;-82
2021/07/16 07:24:21;;;;;;;7.72;7.03;;;19.10;82.20;;;;;;5056062;28;20501;-81
2021/07/16 07:26:54;;;;;;;8.20;7.60;;;19.20;81.90;;;;;;5049721;28;20918;-81
2021/07/16 07:29:21;;;;;;;8.20;7.60;;;19.10;81.10;;;;;;5043538;28;20448;-81
2021/07/16 07:31:48;;;;;;;8.67;7.87;;;19.20;81.20;;;;;;5052807;28;20479;-81
2021/07/16 07:34:15;;;;;;;8.40;7.70;;;19.20;81.70;;;;;;5049010;28;20476;-83
2021/07/16 07:36:44;;;;;;;8.60;7.33;;;19.30;81.40;;;;;;5047549;28;20467;-81
2021/07/16 07:39:10;;;;;;;8.90;8.20;;;19.50;80.60;;;;;;5046626;28;20460;-80
2021/07/16 07:41:38;;;;;;;8.37;7.67;;;19.40;80.40;;;;;;5049864;28;20461;-80
2021/07/16 07:44:06;;;;;;;9.50;8.70;;;19.40;80.00;;;;;;5054399;28;20445;-82
2021/07/16 07:46:33;;;;;;;12.30;10.97;;;19.40;80.30;;;;;;5059731;28;20467;-81
2021/07/16 07:49:00;;;;;;;12.43;11.10;;;19.40;80.60;;;;;;5069567;28;20482;-81
2021/07/16 07:51:27;;;;;;;15.47;13.13;;;19.30;80.60;;;;;;5063288;28;21020;-81
2021/07/16 07:53:54;;;;;;;12.43;11.00;;;19.40;80.40;;;;;;5050001;28;20450;-81
2021/07/16 07:56:21;;;;;;;15.40;10.83;;;19.40;80.50;;;;;;5051955;28;20451;-82
2021/07/16 07:58:48;;;;;;;17.90;10.93;;;19.30;80.10;;;;;;5049623;28;20471;-82
2021/07/16 08:01:17;;;;;;;12.10;10.80;;;19.40;80.40;;;;;;5050295;28;20470;-81
2021/07/16 08:03:44;;;;;;;12.83;9.90;;;19.60;79.60;;;;;;5054656;28;20523;-82
2021/07/16 08:06:12;;;;;;;10.87;9.73;;;19.70;79.50;;;;;;5054522;28;20457;-82
2021/07/16 08:08:39;;;;;;;10.80;9.30;;;19.60;79.00;;;;;;5057848;28;20467;-82
2021/07/16 08:11:05;;;;;;;11.67;8.77;;;19.70;78.80;;;;;;5048622;28;20452;-81
2021/07/16 08:13:32;;;;;;;11.27;9.40;;;19.80;78.40;;;;;;5049506;28;20481;-81
2021/07/16 08:16:01;;;;;;;8.80;8.00;;;19.90;78.00;;;;;;5051909;28;20516;-81
2021/07/16 08:18:29;;;;;;;9.23;7.63;;;20.10;77.80;;;;;;5051827;28;20480;-82
2021/07/16 08:20:57;;;;;;;8.83;7.20;;;20.20;77.40;;;;;;5058552;28;20555;-82
2021/07/16 08:23:23;;;;;;;10.37;7.40;;;20.40;76.80;;;;;;5059407;28;20972;-80
2021/07/16 08:25:51;;;;;;;7.40;6.60;;;20.80;76.10;;;;;;5052642;28;20437;-82
2021/07/16 08:28:17;;;;;;;6.40;5.80;;;21.30;74.80;;;;;;5053958;28;20442;-81
2021/07/16 08:30:44;;;;;;;6.00;5.17;;;21.60;74.50;;;;;;5052261;28;20805;-81
2021/07/16 08:33:11;;;;;;;6.27;5.83;;;21.90;72.80;;;;;;5062572;28;20466;-82
2021/07/16 08:35:39;;;;;;;4.90;4.60;;;22.10;71.70;;;;;;5051053;28;21203;-83
2021/07/16 08:38:06;;;;;;;4.60;4.20;;;22.40;71.10;;;;;;5052131;28;20447;-80
2021/07/16 08:40:33;;;;;;;4.30;4.00;;;22.60;69.70;;;;;;5046995;28;20450;-77
2021/07/16 08:43:00;;;;;;;3.60;3.30;;;22.50;69.30;;;;;;5055326;28;20461;-81
2021/07/16 08:45:27;;;;;;;4.20;3.90;;;22.70;68.50;;;;;;5063053;28;20869;-82
2021/07/16 08:47:54;;;;;;;4.63;4.23;;;22.60;67.70;;;;;;5062555;28;20501;-81
2021/07/16 08:50:25;;;;;;;5.70;4.30;;;22.50;67.30;;;;;;5060765;28;20442;-82
2021/07/16 08:53:00;;;;;;;5.27;3.90;;;22.50;68.30;;;;;;5066122;28;20479;-83
2021/07/16 08:55:31;;;;;;;3.77;3.20;;;22.80;67.50;;;;;;5063100;28;20445;-80
2021/07/16 08:57:58;;;;;;;3.53;3.03;;;23.20;66.50;;;;;;5064902;28;20469;-81
2021/07/16 09:00:25;;;;;;;3.37;3.17;;;23.50;65.60;;;;;;5071514;28;20445;-80
2021/07/16 09:02:55;;;;;;;3.80;3.50;;;23.20;66.60;;;;;;5073423;28;20433;-81
2021/07/16 09:05:36;;;;;;;4.00;3.70;;;23.10;66.60;;;;;;5066149;28;20445;-80
2021/07/16 09:08:11;;;;;;;3.70;3.40;;;22.80;66.60;;;;;;5063298;28;20465;-81
2021/07/16 09:10:45;;;;;;;3.53;3.23;;;22.30;68.00;;;;;;5056108;28;20445;-80
2021/07/16 09:13:12;;;;;;;4.80;3.80;;;22.60;68.20;;;;;;5069697;28;20468;-81
2021/07/16 09:15:43;;;;;;;3.90;3.60;;;22.60;67.90;;;;;;5061831;28;20450;-80
2021/07/16 09:18:21;;;;;;;3.50;3.00;;;22.30;67.90;;;;;;5060783;28;20431;-82
2021/07/16 09:20:48;;;;;;;4.07;3.77;;;22.30;68.30;;;;;;5066205;28;20447;-80
2021/07/16 09:23:18;;;;;;;3.80;3.60;;;22.30;68.20;;;;;;5063051;28;20434;-80
2021/07/16 09:26:03;;;;;;;3.50;3.20;;;22.30;68.70;;;;;;5069628;28;20470;-78
2021/07/16 09:28:30;;;;;;;3.70;3.40;;;22.30;68.70;;;;;;5064543;28;20452;-79
2021/07/16 09:31:13;;;;;;;3.00;2.67;;;22.20;68.80;;;;;;5073251;28;20452;-77
2021/07/16 09:33:49;;;;;;;3.03;2.83;;;22.00;68.60;;;;;;5062304;28;20498;-78
2021/07/16 09:36:27;;;;;;;3.43;3.13;;;22.10;68.60;;;;;;5059270;28;20437;-78
2021/07/16 09:38:57;;;;;;;2.97;2.77;;;22.30;68.50;;;;;;5070442;28;20442;-79
2021/07/16 09:41:24;;;;;;;4.00;2.40;;;22.30;68.00;;;;;;5069376;28;20468;-78
2021/07/16 09:43:52;;;;;;;2.93;2.33;;;22.40;68.50;;;;;;5067319;28;20462;-83
2021/07/16 09:46:19;;;;;;;2.70;2.50;;;22.60;67.40;;;;;;5069707;28;20454;-80
2021/07/16 09:48:46;;;;;;;2.70;2.50;;;22.50;67.80;;;;;;5055512;28;20977;-78
2021/07/16 09:51:16;;;;;;;2.00;1.90;;;22.70;67.20;;;;;;5057800;28;20511;-79
2021/07/16 09:53:44;;;;;;;3.20;2.67;;;22.70;66.90;;;;;;5056727;28;20544;-79
2021/07/16 09:56:14;;;;;;;2.37;2.03;;;22.60;67.20;;;;;;5050932;28;21121;-77
2021/07/16 09:58:42;;;;;;;2.13;2.03;;;22.60;66.20;;;;;;5048419;28;20521;-78
2021/07/16 10:01:10;;;;;;;2.03;1.93;;;22.60;66.90;;;;;;5052825;28;20552;-78
2021/07/16 10:03:37;;;;;;;2.77;2.10;;;22.70;65.90;;;;;;5053374;28;20442;-80
2021/07/16 10:06:08;;;;;;;2.30;2.13;;;22.80;66.80;;;;;;5050780;28;20929;-78
2021/07/16 10:08:36;;;;;;;2.47;2.30;;;22.80;65.80;;;;;;5051348;28;20461;-80
2021/07/16 10:11:05;;;;;;;2.47;2.30;;;23.00;66.00;;;;;;5052587;28;20442;-79
2021/07/16 10:13:36;;;;;;;2.77;2.43;;;23.10;65.90;;;;;;5050842;28;20477;-79
2021/07/16 10:16:05;;;;;;;2.10;2.00;;;23.10;65.10;;;;;;5053573;28;20465;-79
2021/07/16 10:18:32;;;;;;;1.80;1.70;;;23.20;65.50;;;;;;5048119;28;20454;-78
2021/07/16 10:20:59;;;;;;;5.03;2.13;;;23.30;65.70;;;;;;5053830;28;20453;-78
2021/07/16 10:23:27;;;;;;;2.47;1.90;;;23.60;65.40;;;;;;5054569;28;20901;-78
2021/07/16 10:25:55;;;;;;;1.80;1.70;;;23.70;64.50;;;;;;5049306;28;20458;-78
2021/07/16 10:28:40;;;;;;;1.97;1.87;;;23.60;64.20;;;;;;5046010;28;20469;-78
2021/07/16 10:31:42;;;;;;;2.73;1.83;;;23.40;63.60;;;;;;5046342;28;20468;-82
2021/07/16 10:34:33;;;;;;;2.83;1.90;;;23.50;64.00;;;;;;5052224;28;20483;-86
2021/07/16 10:37:03;;;;;;;2.22;1.60;;;23.50;62.90;;;;;;5051395;28;20461;-83
2021/07/16 10:39:50;;;;;;;3.67;2.07;;;23.60;63.20;;;;;;5050409;28;20197;-84
2021/07/16 10:42:44;;;;;;;2.33;1.67;;;23.60;62.90;;;;;;5050369;28;20532;-83
2021/07/16 10:45:14;;;;;;;1.73;1.63;;;23.70;62.50;;;;;;5046330;28;20450;-81
2021/07/16 10:47:43;;;;;;;2.10;1.70;;;24.10;62.20;;;;;;5061786;28;20445;-84
2021/07/16 10:50:12;;;;;;;1.77;1.67;;;24.20;61.50;;;;;;5070372;28;20503;-83
2021/07/16 10:52:48;;;;;;;2.03;1.70;;;24.30;61.40;;;;;;5067472;28;20482;-82
2021/07/16 10:55:17;;;;;;;1.70;1.60;;;24.60;61.30;;;;;;5068842;28;20453;-82
2021/07/16 10:57:45;;;;;;;2.33;2.03;;;24.80;60.60;;;;;;5059523;28;20454;-83
2021/07/16 11:00:51;;;;;;;1.97;1.63;;;25.00;60.50;;;;;;5057576;28;20464;-82
2021/07/16 11:03:18;;;;;;;2.90;1.90;;;25.20;60.20;;;;;;5058260;28;21071;-82
2021/07/16 11:05:54;;;;;;;2.20;2.00;;;25.40;59.50;;;;;;5046757;28;20476;-83
2021/07/16 11:08:49;;;;;;;5.40;1.73;;;25.50;59.10;;;;;;5051110;28;20564;-84
2021/07/16 11:11:17;;;;;;;1.80;1.70;;;25.50;59.40;;;;;;5063375;28;20500;-83
2021/07/16 11:13:47;;;;;;;1.63;1.53;;;25.80;59.30;;;;;;5050681;28;20466;-82
2021/07/16 11:16:45;;;;;;;1.90;1.80;;;25.40;59.90;;;;;;5060073;28;20473;-83
2021/07/16 11:19:36;;;;;;;2.50;1.90;;;25.00;59.70;;;;;;5060305;28;20422;-85
2021/07/16 11:22:07;;;;;;;1.90;1.80;;;24.80;59.90;;;;;;5062632;28;20454;-83
2021/07/16 11:24:46;;;;;;;2.33;2.03;;;24.80;58.90;;;;;;5056846;28;20453;-83
2021/07/16 11:27:17;;;;;;;1.77;1.67;;;24.80;59.00;;;;;;5042896;28;20452;-83
2021/07/16 11:29:46;;;;;;;1.90;1.80;;;24.80;58.70;;;;;;5050644;28;20456;-82
2021/07/16 11:32:19;;;;;;;2.00;1.90;;;25.20;59.40;;;;;;5064285;28;20452;-83
2021/07/16 11:34:49;;;;;;;1.63;1.53;;;25.30;57.90;;;;;;5059656;28;20454;-84
2021/07/16 11:37:25;;;;;;;1.40;1.30;;;25.50;57.50;;;;;;5053475;28;20449;-80
2021/07/16 11:39:54;;;;;;;2.00;1.80;;;25.80;58.00;;;;;;5046811;28;20516;-79
2021/07/16 11:42:21;;;;;;;2.03;1.57;;;25.90;57.20;;;;;;5054240;28;20446;-80
2021/07/16 11:44:48;;;;;;;1.80;1.70;;;25.60;57.00;;;;;;5051400;28;20443;-79
2021/07/16 11:47:18;;;;;;;2.50;1.47;;;26.00;57.20;;;;;;5048706;28;20522;-79
2021/07/16 11:49:46;;;;;;;1.87;1.77;;;25.90;57.00;;;;;;5047981;28;20441;-79
2021/07/16 11:52:16;;;;;;;1.40;1.30;;;26.10;56.60;;;;;;5052189;28;20500;-78
2021/07/16 11:54:44;;;;;;;1.60;1.50;;;26.40;56.90;;;;;;5053412;28;20456;-78
2021/07/16 11:57:11;;;;;;;1.80;1.70;;;26.00;56.60;;;;;;5058682;28;20446;-78
2021/07/16 11:59:38;;;;;;;1.50;1.40;;;25.80;56.20;;;;;;5059460;28;20804;-79
2021/07/16 12:02:10;;;;;;;1.87;1.77;;;25.60;56.70;;;;;;5052283;28;20987;-78
2021/07/16 12:04:39;;;;;;;1.60;1.50;;;25.40;55.80;;;;;;5048609;28;20508;-78
2021/07/16 12:07:07;;;;;;;2.07;1.97;;;25.60;56.90;;;;;;5050391;28;20528;-77
2021/07/16 12:09:36;;;;;;;2.30;1.40;;;25.70;56.30;;;;;;5045471;28;20505;-78
2021/07/16 12:12:05;;;;;;;1.50;1.40;;;25.80;56.20;;;;;;5046835;28;20518;-78
2021/07/16 12:15:02;;;;;;;1.70;1.60;;;25.80;55.60;;;;;;5049466;28;20495;-77
2021/07/16 12:17:31;;;;;;;1.20;1.10;;;25.90;56.20;;;;;;5009177;28;20470;-78
2021/07/16 12:19:59;;;;;;;1.50;1.40;;;25.70;53.60;;;;;;5054651;28;20481;-78
2021/07/16 12:22:30;;;;;;;1.50;1.40;;;25.80;53.80;;;;;;5056831;28;20452;-78
2021/07/16 12:24:58;;;;;;;1.70;1.60;;;26.00;54.90;;;;;;5047734;28;20474;-79
2021/07/16 12:27:25;;;;;;;1.60;1.50;;;26.20;54.80;;;;;;5043131;28;20445;-81
2021/07/16 12:29:57;;;;;;;1.77;1.67;;;26.30;55.30;;;;;;5044146;28;20456;-79
2021/07/16 12:32:41;;;;;;;1.70;1.60;;;26.50;55.50;;;;;;5055757;28;20473;-82
2021/07/16 12:35:19;;;;;;;2.90;1.60;;;26.40;53.70;;;;;;5055766;28;20454;-82
2021/07/16 12:37:48;;;;;;;1.70;1.60;;;26.50;53.80;;;;;;5050208;28;20445;-84
2021/07/16 12:40:21;;;;;;;1.50;1.40;;;27.10;54.20;;;;;;5041029;28;20458;-86
2021/07/16 12:43:03;;;;;;;1.50;1.40;;;27.30;53.70;;;;;;5052726;28;20496;-85
2021/07/16 12:45:39;;;;;;;1.43;1.33;;;27.10;53.00;;;;;;5054445;28;20452;-84
2021/07/16 12:48:26;;;;;;;1.60;1.50;;;26.70;53.30;;;;;;5047185;28;20473;-84
2021/07/16 12:51:05;;;;;;;3.33;1.60;;;27.10;53.10;;;;;;5061173;28;20457;-86
2021/07/16 12:53:35;;;;;;;2.33;1.70;;;27.40;53.10;;;;;;5060018;28;21841;-80
2021/07/16 12:56:19;;;;;;;1.93;1.83;;;27.70;53.40;;;;;;5065062;28;20450;-80